createdAt,value
2022-09-06T00:00:51.859Z,8.67
2022-09-06T00:03:40.329Z,8.70
2022-09-06T00:06:18.782Z,8.32
2022-09-06T00:09:06.129Z,8.52
2022-09-06T00:11:37.056Z,8.82
2022-09-06T00:14:10.088Z,8.43
2022-09-06T00:16:43.180Z,9.18
2022-09-06T00:19:22.660Z,8.52
2022-09-06T00:21:49.641Z,7.85
2022-09-06T00:24:25.933Z,9.55
2022-09-06T00:26:58.427Z,9.10
2022-09-06T00:29:30.748Z,11.10
2022-09-06T00:32:11.096Z,12.32
2022-09-06T00:34:38.229Z,18.08
2022-09-06T00:37:23.842Z,17.33
2022-09-06T00:39:56.277Z,13.25
2022-09-06T00:42:23.359Z,13.40
2022-09-06T00:44:56.354Z,10.32
2022-09-06T00:47:29.711Z,11.27
2022-09-06T00:50:03.524Z,9.93
2022-09-06T00:52:32.034Z,9.02
2022-09-06T00:55:07.965Z,8.00
2022-09-06T00:57:35.600Z,8.00
2022-09-06T01:00:09.765Z,7.93
2022-09-06T01:02:44.974Z,8.40
2022-09-06T01:05:17.255Z,8.52
2022-09-06T01:07:54.555Z,8.15
2022-09-06T01:11:24.671Z,8.90
2022-09-06T01:14:09.365Z,8.73
2022-09-06T01:17:08.623Z,10.02
2022-09-06T01:20:06.865Z,9.13
2022-09-06T01:22:52.718Z,10.80
2022-09-06T01:25:31.650Z,11.73
2022-09-06T01:28:19.570Z,15.75
2022-09-06T01:31:00.911Z,17.20
2022-09-06T01:34:05.526Z,16.30
2022-09-06T01:39:31.985Z,12.10
2022-09-06T01:42:08.661Z,16.25
2022-09-06T01:44:43.371Z,17.50
2022-09-06T01:47:30.380Z,20.55
2022-09-06T01:50:12.666Z,18.05
2022-09-06T01:53:01.047Z,16.27
2022-09-06T01:55:45.199Z,20.10
2022-09-06T01:58:56.489Z,20.98
2022-09-06T02:01:39.660Z,19.63
2022-09-06T02:04:15.398Z,23.17
2022-09-06T02:07:02.277Z,19.33
2022-09-06T02:09:41.142Z,19.25
2022-09-06T02:12:16.091Z,22.08
2022-09-06T02:14:52.249Z,20.30
2022-09-06T02:17:29.782Z,20.73
2022-09-06T02:20:08.719Z,18.35
2022-09-06T02:22:47.909Z,19.33
2022-09-06T02:25:47.503Z,19.75
2022-09-06T02:28:25.026Z,19.30
2022-09-06T02:31:04.191Z,20.92
2022-09-06T02:33:41.392Z,20.73
2022-09-06T02:36:19.542Z,20.15
2022-09-06T02:38:57.291Z,22.05
2022-09-06T02:41:27.446Z,21.50
2022-09-06T02:43:55.579Z,20.75
2022-09-06T02:46:33.288Z,22.65
2022-09-06T02:49:07.824Z,18.17
2022-09-06T02:51:41.131Z,15.10
2022-09-06T02:54:12.984Z,16.70
2022-09-06T02:56:50.213Z,15.45
2022-09-06T02:59:32.908Z,15.02
2022-09-06T03:02:05.372Z,15.55
2022-09-06T03:04:34.772Z,17.27
2022-09-06T03:07:18.923Z,15.50
2022-09-06T03:09:57.242Z,14.48
2022-09-06T03:12:34.498Z,13.90
2022-09-06T03:15:01.543Z,14.23
2022-09-06T03:17:31.276Z,16.50
2022-09-06T03:20:07.045Z,11.80
2022-09-06T03:22:45.330Z,12.45
2022-09-06T03:25:17.927Z,11.50
2022-09-06T03:27:48.077Z,12.50
2022-09-06T03:30:15.231Z,13.73
2022-09-06T03:32:50.598Z,14.00
2022-09-06T03:35:34.147Z,16.42
2022-09-06T03:38:04.108Z,18.05
2022-09-06T03:40:32.092Z,15.52
2022-09-06T03:42:59.162Z,18.08
2022-09-06T03:45:28.871Z,18.65
2022-09-06T03:48:09.886Z,21.65
2022-09-06T03:50:49.001Z,21.77
2022-09-06T03:53:26.672Z,18.45
2022-09-06T03:56:08.798Z,13.02
2022-09-06T03:58:42.666Z,13.48
2022-09-06T04:01:20.173Z,12.80
2022-09-06T04:03:50.387Z,10.63
2022-09-06T04:06:28.140Z,11.32
2022-09-06T04:09:03.203Z,9.60
2022-09-06T04:11:33.055Z,8.73
2022-09-06T04:14:18.203Z,8.88
2022-09-06T04:16:45.289Z,8.07
2022-09-06T04:19:16.173Z,6.65
2022-09-06T04:21:56.264Z,6.15
2022-09-06T04:24:26.250Z,5.55
2022-09-06T04:27:02.063Z,5.85
2022-09-06T04:29:34.581Z,6.05
2022-09-06T04:32:06.621Z,5.30
2022-09-06T04:34:34.341Z,5.50
2022-09-06T04:37:07.196Z,5.68
2022-09-06T04:39:34.437Z,6.30
2022-09-06T04:42:07.068Z,5.75
2022-09-06T04:44:49.398Z,5.75
2022-09-06T04:47:34.401Z,6.05
2022-09-06T04:50:10.475Z,5.75
2022-09-06T04:52:40.665Z,6.22
2022-09-06T04:55:08.177Z,5.95
2022-09-06T04:57:42.021Z,6.22
2022-09-06T05:00:12.372Z,5.35
2022-09-06T05:03:00.129Z,5.65
2022-09-06T05:05:40.765Z,5.65
2022-09-06T05:08:21.994Z,5.97
2022-09-06T05:11:02.597Z,6.32
2022-09-06T05:13:40.978Z,6.45
2022-09-06T05:16:09.132Z,5.80
2022-09-06T05:18:43.344Z,5.80
2022-09-06T05:21:16.315Z,6.55
2022-09-06T05:23:49.388Z,6.60
2022-09-06T05:26:19.432Z,5.97
2022-09-06T05:28:55.184Z,6.65
2022-09-06T05:31:33.453Z,5.70
2022-09-06T05:34:06.579Z,6.00
2022-09-06T05:36:42.523Z,6.18
2022-09-06T05:39:12.436Z,6.18
2022-09-06T05:41:48.540Z,5.40
2022-09-06T05:44:15.555Z,5.78
2022-09-06T05:46:51.094Z,5.85
2022-09-06T05:49:30.507Z,5.60
2022-09-06T05:52:11.634Z,5.80
2022-09-06T05:54:50.009Z,4.85
2022-09-06T05:57:30.212Z,4.60
2022-09-06T06:02:50.456Z,4.72
2022-09-06T06:05:21.649Z,5.35
2022-09-06T06:07:48.660Z,4.45
2022-09-06T06:10:21.254Z,4.85
2022-09-06T06:12:54.327Z,3.80
2022-09-06T06:15:21.416Z,4.57
2022-09-06T06:17:56.693Z,4.00
2022-09-06T06:20:24.124Z,4.13
2022-09-06T06:22:59.569Z,3.83
2022-09-06T06:25:32.449Z,4.50
2022-09-06T06:28:01.961Z,3.67
2022-09-06T06:30:40.076Z,3.90
2022-09-06T06:33:15.381Z,4.05
2022-09-06T06:36:05.640Z,4.03
2022-09-06T06:38:43.732Z,3.83
2022-09-06T06:41:16.300Z,4.28
2022-09-06T06:43:43.679Z,3.90
2022-09-06T06:46:16.299Z,4.43
2022-09-06T06:48:50.396Z,4.15
2022-09-06T06:51:23.613Z,4.00
2022-09-06T06:53:54.433Z,4.40
2022-09-06T06:56:35.645Z,4.22
2022-09-06T06:59:08.374Z,4.20
2022-09-06T07:01:36.744Z,4.55
2022-09-06T07:04:12.426Z,4.22
2022-09-06T07:12:38.375Z,4.57
2022-09-06T07:15:06.974Z,4.88
2022-09-06T07:17:38.104Z,4.43
2022-09-06T07:22:45.955Z,4.53
2022-09-06T07:25:23.190Z,4.25
2022-09-06T07:27:58.462Z,4.35
2022-09-06T07:30:27.165Z,4.43
2022-09-06T07:33:00.907Z,4.13
2022-09-06T07:35:34.014Z,4.32
2022-09-06T07:38:04.996Z,4.35
2022-09-06T07:40:32.044Z,4.30
2022-09-06T07:43:07.085Z,4.20
2022-09-06T07:45:38.115Z,4.30
2022-09-06T07:48:25.322Z,3.80
2022-09-06T07:50:53.670Z,4.22
2022-09-06T07:53:30.812Z,3.45
2022-09-06T07:56:09.309Z,4.32
2022-09-06T07:58:47.320Z,3.92
2022-09-06T08:01:39.768Z,4.47
2022-09-06T08:04:15.864Z,4.18
2022-09-06T08:09:46.323Z,3.92
2022-09-06T08:12:17.487Z,4.00
2022-09-06T08:14:44.684Z,4.18
2022-09-06T08:17:13.564Z,3.50
2022-09-06T08:19:46.961Z,3.78
2022-09-06T08:22:15.127Z,3.75
2022-09-06T08:24:42.460Z,3.78
2022-09-06T08:27:09.551Z,3.80
2022-09-06T08:29:45.491Z,3.28
2022-09-06T08:32:22.511Z,3.60
2022-09-06T08:34:55.510Z,3.78
2022-09-06T08:37:38.807Z,3.92
2022-09-06T08:40:12.781Z,3.55
2022-09-06T08:42:43.320Z,3.45
2022-09-06T08:45:28.272Z,4.50
2022-09-06T08:48:10.394Z,3.88
2022-09-06T08:50:50.634Z,3.28
2022-09-06T08:53:22.145Z,3.47
2022-09-06T08:55:59.708Z,3.65
2022-09-06T08:58:45.833Z,4.03
2022-09-06T09:01:24.767Z,3.65
2022-09-06T09:03:57.439Z,3.50
2022-09-06T09:06:38.197Z,3.15
2022-09-06T09:09:12.948Z,3.55
2022-09-06T09:11:43.842Z,4.03
2022-09-06T09:14:17.326Z,3.70
2022-09-06T09:16:57.123Z,3.50
2022-09-06T09:19:30.406Z,3.60
2022-09-06T09:22:00.490Z,3.30
2022-09-06T09:24:36.706Z,3.70
2022-09-06T09:27:16.179Z,3.33
2022-09-06T09:32:59.663Z,3.53
2022-09-06T09:35:36.966Z,3.40
2022-09-06T09:38:11.824Z,3.72
2022-09-06T09:40:41.850Z,3.38
2022-09-06T09:43:23.358Z,3.80
2022-09-06T09:46:12.274Z,3.75
2022-09-06T09:48:40.966Z,3.10
2022-09-06T09:51:26.589Z,3.58
2022-09-06T09:53:59.463Z,3.58
2022-09-06T09:56:55.275Z,3.88
2022-09-06T09:59:43.341Z,3.85
2022-09-06T10:02:21.942Z,3.67
2022-09-06T10:04:51.950Z,4.05
2022-09-06T10:07:24.575Z,4.07
2022-09-06T10:10:22.591Z,3.22
2022-09-06T10:13:20.458Z,3.63
2022-09-06T10:15:48.860Z,3.92
2022-09-06T10:18:40.140Z,3.78
2022-09-06T10:21:16.529Z,3.80
2022-09-06T10:26:52.426Z,3.60
2022-09-06T10:29:40.515Z,3.83
2022-09-06T10:32:22.729Z,3.28
2022-09-06T10:34:52.684Z,3.55
2022-09-06T10:37:49.114Z,4.00
2022-09-06T10:40:48.463Z,3.65
2022-09-06T10:43:19.315Z,3.28
2022-09-06T10:46:10.408Z,3.95
2022-09-06T10:48:57.094Z,3.58
2022-09-06T10:51:44.996Z,3.30
2022-09-06T10:54:32.227Z,3.28
2022-09-06T11:00:17.256Z,3.00
2022-09-06T11:06:05.070Z,2.83
2022-09-06T11:14:42.120Z,3.13
2022-09-06T11:17:35.352Z,2.85
2022-09-06T11:20:19.528Z,3.05
2022-09-06T11:23:08.408Z,2.65
2022-09-06T11:26:10.396Z,2.75
2022-09-06T11:28:50.897Z,3.03
2022-09-06T11:35:07.419Z,2.70
2022-09-06T11:37:41.181Z,2.92
2022-09-06T11:42:53.700Z,2.75
2022-09-06T11:45:39.094Z,2.70
2022-09-06T11:48:41.813Z,2.88
2022-09-06T11:51:15.225Z,3.00
2022-09-06T11:53:52.448Z,2.70
2022-09-06T11:56:35.488Z,2.30
2022-09-06T11:59:24.101Z,2.40
2022-09-06T12:02:00.444Z,2.50
2022-09-06T12:05:01.799Z,2.50
2022-09-06T12:07:36.603Z,2.30
2022-09-06T12:10:31.706Z,2.30
2022-09-06T12:13:02.674Z,2.78
2022-09-06T12:15:45.664Z,2.33
2022-09-06T12:18:53.227Z,2.13
2022-09-06T12:21:41.662Z,2.00
2022-09-06T12:24:38.928Z,2.03
2022-09-06T12:27:13.160Z,2.85
2022-09-06T12:29:55.479Z,2.45
2022-09-06T12:32:44.036Z,2.35
2022-09-06T12:38:32.435Z,2.60
2022-09-06T12:41:04.125Z,2.25
2022-09-06T12:43:37.469Z,2.42
2022-09-06T12:46:12.863Z,2.10
2022-09-06T12:49:30.859Z,2.20
2022-09-06T12:52:15.313Z,2.47
2022-09-06T12:54:55.643Z,2.25
2022-09-06T12:57:26.358Z,2.80
2022-09-06T12:59:58.618Z,2.60
2022-09-06T13:03:04.463Z,2.78
2022-09-06T13:05:38.044Z,1.77
2022-09-06T13:10:38.442Z,1.90
2022-09-06T13:13:19.839Z,2.17
2022-09-06T13:15:55.728Z,2.30
2022-09-06T13:19:17.187Z,2.47
2022-09-06T13:21:49.108Z,2.70
2022-09-06T13:24:47.272Z,2.42
2022-09-06T13:27:49.324Z,2.72
2022-09-06T13:30:49.928Z,2.80
2022-09-06T13:33:27.071Z,2.53
2022-09-06T13:36:31.932Z,2.22
2022-09-06T13:39:05.531Z,2.50
2022-09-06T13:41:39.705Z,2.33
2022-09-06T13:44:09.555Z,2.47
2022-09-06T13:46:39.584Z,1.83
2022-09-06T13:49:06.643Z,2.55
2022-09-06T13:51:41.539Z,2.25
2022-09-06T13:54:20.661Z,2.65
2022-09-06T13:56:56.272Z,2.63
2022-09-06T13:59:27.412Z,2.10
2022-09-06T14:02:08.182Z,2.53
2022-09-06T14:04:38.920Z,2.05
2022-09-06T14:07:12.637Z,2.25
2022-09-06T14:09:48.321Z,2.20
2022-09-06T14:12:17.244Z,2.30
2022-09-06T14:14:48.044Z,2.28
2022-09-06T14:17:16.155Z,2.30
2022-09-06T14:19:49.435Z,2.70
2022-09-06T14:22:17.366Z,2.15
2022-09-06T14:24:44.435Z,2.05
2022-09-06T14:27:19.539Z,2.60
2022-09-06T14:29:46.546Z,2.40
2022-09-06T14:32:21.857Z,2.55
2022-09-06T14:34:56.013Z,2.63
2022-09-06T14:40:03.890Z,2.30
2022-09-06T14:42:34.364Z,2.03
2022-09-06T14:45:07.650Z,2.13
2022-09-06T14:47:45.828Z,2.40
2022-09-06T14:50:19.259Z,2.08
2022-09-06T14:52:49.329Z,2.38
2022-09-06T14:55:26.039Z,2.17
2022-09-06T14:57:59.166Z,2.28
2022-09-06T15:00:44.278Z,2.00
2022-09-06T15:03:11.342Z,2.08
2022-09-06T15:05:42.621Z,2.75
2022-09-06T15:08:09.736Z,2.13
2022-09-06T15:10:41.432Z,2.17
2022-09-06T15:13:23.917Z,2.10
2022-09-06T15:15:56.379Z,2.50
2022-09-06T15:18:25.925Z,2.50
2022-09-06T15:20:59.303Z,2.65
2022-09-06T15:23:30.375Z,3.50
2022-09-06T15:25:57.591Z,3.35
2022-09-06T15:28:30.481Z,3.55
2022-09-06T15:30:58.763Z,3.67
2022-09-06T15:33:35.102Z,3.92
2022-09-06T15:36:09.263Z,4.03
2022-09-06T15:38:41.561Z,4.45
2022-09-06T15:41:20.441Z,4.07
2022-09-06T15:43:57.012Z,4.10
2022-09-06T15:46:36.561Z,3.80
2022-09-06T15:49:07.381Z,3.88
2022-09-06T15:51:40.650Z,3.25
2022-09-06T15:54:08.218Z,3.65
2022-09-06T15:56:44.409Z,4.10
2022-09-06T15:59:19.888Z,3.45
2022-09-06T16:01:47.378Z,3.30
2022-09-06T16:04:17.579Z,3.80
2022-09-06T16:06:46.477Z,3.92
2022-09-06T16:09:25.534Z,4.10
2022-09-06T16:11:55.530Z,4.60
2022-09-06T16:14:36.409Z,4.75
2022-09-06T16:17:15.884Z,5.13
2022-09-06T16:19:52.024Z,5.50
2022-09-06T16:22:31.780Z,4.75
2022-09-06T16:25:15.456Z,5.13
2022-09-06T16:27:51.931Z,4.70
2022-09-06T16:30:29.134Z,5.05
2022-09-06T16:33:13.867Z,5.20
2022-09-06T16:35:49.387Z,5.30
2022-09-06T16:38:36.691Z,5.25
2022-09-06T16:41:20.268Z,4.93
2022-09-06T16:44:02.233Z,5.40
2022-09-06T16:46:41.987Z,5.43
2022-09-06T16:49:34.979Z,5.70
2022-09-06T16:52:23.301Z,4.80
2022-09-06T16:55:03.988Z,5.68
2022-09-06T16:57:40.079Z,5.07
2022-09-06T17:00:16.551Z,5.07
2022-09-06T17:02:47.845Z,6.38
2022-09-06T17:05:20.548Z,6.35
2022-09-06T17:07:50.310Z,7.45
2022-09-06T17:10:21.493Z,8.00
2022-09-06T17:13:01.057Z,8.23
2022-09-06T17:15:48.507Z,8.52
2022-09-06T17:18:22.819Z,7.93
2022-09-06T17:21:09.645Z,7.60
2022-09-06T17:23:40.265Z,7.15
2022-09-06T17:26:07.743Z,6.57
2022-09-06T17:28:36.775Z,6.63
2022-09-06T17:31:10.053Z,5.53
2022-09-06T17:33:42.607Z,5.18
2022-09-06T17:36:17.298Z,7.40
2022-09-06T17:38:48.826Z,8.00
2022-09-06T17:42:00.050Z,6.13
2022-09-06T17:44:30.130Z,6.15
2022-09-06T17:47:14.250Z,6.35
2022-09-06T17:49:53.303Z,6.63
2022-09-06T17:52:20.447Z,7.38
2022-09-06T17:54:50.328Z,6.85
2022-09-06T17:57:22.675Z,7.82
2022-09-06T17:59:52.807Z,7.97
2022-09-06T18:02:22.951Z,6.93
2022-09-06T18:04:53.707Z,7.72
2022-09-06T18:07:20.912Z,8.10
2022-09-06T18:09:50.995Z,7.80
2022-09-06T18:12:20.759Z,7.28
2022-09-06T18:14:52.010Z,7.90
2022-09-06T18:17:29.500Z,7.63
2022-09-06T18:20:01.470Z,7.38
2022-09-06T18:22:34.709Z,7.28
2022-09-06T18:25:05.367Z,7.03
2022-09-06T18:27:33.933Z,7.30
2022-09-06T18:30:03.202Z,7.03
2022-09-06T18:32:31.083Z,7.45
2022-09-06T18:35:00.879Z,7.43
2022-09-06T18:37:35.911Z,7.38
2022-09-06T18:40:09.581Z,7.38
2022-09-06T18:45:08.331Z,6.78
2022-09-06T18:47:39.650Z,7.78
2022-09-06T18:50:15.671Z,7.80
2022-09-06T18:52:43.022Z,7.13
2022-09-06T18:55:12.960Z,7.93
2022-09-06T18:57:43.540Z,6.82
2022-09-06T19:00:18.739Z,7.25
2022-09-06T19:02:48.212Z,7.80
2022-09-06T19:05:23.565Z,7.15
2022-09-06T19:07:53.432Z,7.00
2022-09-06T19:10:23.605Z,7.82
2022-09-06T19:12:57.251Z,7.18
2022-09-06T19:17:58.897Z,7.30
2022-09-06T19:20:26.090Z,8.07
2022-09-06T19:22:56.154Z,8.55
2022-09-06T19:25:23.376Z,8.50
2022-09-06T19:27:54.300Z,8.40
2022-09-06T19:30:26.586Z,8.70
2022-09-06T19:33:02.326Z,9.02
2022-09-06T19:35:31.240Z,7.47
2022-09-06T19:38:08.327Z,8.40
2022-09-06T19:40:43.663Z,8.65
2022-09-06T19:43:12.083Z,8.15
2022-09-06T19:45:45.094Z,8.63
2022-09-06T19:48:14.809Z,8.25
2022-09-06T19:50:44.614Z,7.63
2022-09-06T19:53:11.765Z,8.90
2022-09-06T19:55:38.850Z,7.47
2022-09-06T19:58:08.961Z,7.82
2022-09-06T20:00:40.503Z,7.93
2022-09-06T20:03:10.615Z,8.13
2022-09-06T20:05:40.723Z,8.07
2022-09-06T20:08:09.919Z,7.97
2022-09-06T20:10:37.034Z,8.75
2022-09-06T20:13:04.267Z,8.50
2022-09-06T20:15:36.162Z,9.02
2022-09-06T20:18:11.178Z,9.68
2022-09-06T20:20:41.180Z,9.00
2022-09-06T20:23:12.941Z,9.05
2022-09-06T20:25:45.916Z,8.32
2022-09-06T20:28:18.563Z,9.73
2022-09-06T20:30:55.801Z,10.02
2022-09-06T20:33:29.184Z,11.98
2022-09-06T20:36:04.133Z,10.30
2022-09-06T20:38:36.768Z,11.73
2022-09-06T20:41:09.464Z,10.05
2022-09-06T20:43:55.173Z,9.50
2022-09-06T20:46:33.626Z,9.68
2022-09-06T20:49:04.647Z,10.07
2022-09-06T20:51:38.441Z,10.07
2022-09-06T20:56:48.009Z,9.23
2022-09-06T20:59:15.057Z,11.25
2022-09-06T21:01:51.085Z,11.35
2022-09-06T21:04:21.789Z,12.85
2022-09-06T21:06:55.020Z,11.32
2022-09-06T21:09:25.058Z,11.15
2022-09-06T21:11:55.407Z,11.77
2022-09-06T21:14:29.868Z,12.02
2022-09-06T21:16:57.003Z,14.38
2022-09-06T21:19:26.730Z,16.50
2022-09-06T21:21:56.880Z,20.10
2022-09-06T21:24:31.001Z,21.17
2022-09-06T21:27:24.681Z,20.10
2022-09-06T21:29:51.699Z,20.90
2022-09-06T21:32:18.857Z,18.73
2022-09-06T21:34:47.401Z,18.70
2022-09-06T21:37:17.942Z,19.58
2022-09-06T21:39:48.144Z,18.70
2022-09-06T21:42:18.635Z,18.30
2022-09-06T21:44:45.674Z,17.80
2022-09-06T21:47:17.270Z,19.27
2022-09-06T21:49:54.552Z,17.40
2022-09-06T21:52:26.880Z,17.77
2022-09-06T21:54:53.871Z,18.85
2022-09-06T21:57:36.737Z,18.20
2022-09-06T22:00:07.939Z,18.83
2022-09-06T22:02:38.723Z,20.02
2022-09-06T22:05:15.293Z,20.00
2022-09-06T22:07:53.638Z,20.30
2022-09-06T22:10:31.616Z,20.98
2022-09-06T22:12:58.749Z,20.48
2022-09-06T22:15:29.574Z,22.15
2022-09-06T22:17:57.373Z,23.00
2022-09-06T22:20:27.274Z,24.08
2022-09-06T22:22:57.182Z,23.75
2022-09-06T22:25:27.557Z,22.20
2022-09-06T22:27:54.612Z,22.73
2022-09-06T22:30:25.499Z,21.75
2022-09-06T22:33:03.495Z,20.70
2022-09-06T22:35:31.294Z,20.58
2022-09-06T22:38:03.839Z,19.90
2022-09-06T22:40:36.413Z,21.83
2022-09-06T22:43:12.037Z,25.65
2022-09-06T22:45:48.681Z,23.90
2022-09-06T22:48:30.267Z,24.08
2022-09-06T22:51:08.667Z,28.52
2022-09-06T22:53:39.095Z,29.05
2022-09-06T22:56:14.496Z,29.42
2022-09-06T22:58:44.527Z,33.17
2022-09-06T23:01:20.382Z,35.40
2022-09-06T23:03:50.925Z,36.03
2022-09-06T23:06:26.036Z,37.58
2022-09-06T23:08:53.118Z,34.85
2022-09-06T23:11:26.390Z,36.70
2022-09-06T23:14:03.539Z,31.92
2022-09-06T23:16:33.777Z,32.10
2022-09-06T23:19:11.052Z,32.08
2022-09-06T23:21:43.553Z,33.05
2022-09-06T23:24:11.481Z,31.85
2022-09-06T23:26:44.638Z,31.10
2022-09-06T23:29:26.142Z,28.10
2022-09-06T23:32:07.223Z,27.02
2022-09-06T23:34:42.695Z,27.15
2022-09-06T23:37:20.452Z,27.65
2022-09-06T23:39:55.796Z,26.77
2022-09-06T23:42:28.487Z,26.00
2022-09-06T23:45:14.156Z,25.48
2022-09-06T23:47:43.513Z,23.55
2022-09-06T23:50:21.551Z,24.08
2022-09-06T23:53:07.566Z,24.88
2022-09-06T23:55:48.987Z,26.75
2022-09-06T23:58:21.798Z,28.48
